createdAt,value
2022-11-19T00:01:26.330Z,3.03
2022-11-19T00:03:53.626Z,2.78
2022-11-19T00:06:23.051Z,2.67
2022-11-19T00:08:50.392Z,3.83
2022-11-19T00:11:40.008Z,2.03
2022-11-19T00:14:07.638Z,3.97
2022-11-19T00:16:35.049Z,7.83
2022-11-19T00:19:02.049Z,6.63
2022-11-19T00:21:29.130Z,5.00
2022-11-19T00:23:56.240Z,7.53
2022-11-19T00:26:23.914Z,7.15
2022-11-19T00:28:51.030Z,6.70
2022-11-19T00:31:17.980Z,9.90
2022-11-19T00:33:45.784Z,10.93
2022-11-19T00:36:15.266Z,10.20
2022-11-19T00:38:42.627Z,10.20
2022-11-19T00:41:09.936Z,11.20
2022-11-19T00:43:52.345Z,7.28
2022-11-19T00:46:25.665Z,5.78
2022-11-19T00:48:54.359Z,4.10
2022-11-19T00:51:22.850Z,3.95
2022-11-19T00:56:19.045Z,3.42
2022-11-19T00:58:46.782Z,2.85
2022-11-19T01:01:15.518Z,2.90
2022-11-19T01:03:45.680Z,6.25
2022-11-19T01:06:18.789Z,3.00
2022-11-19T01:08:49.994Z,3.85
2022-11-19T01:11:22.900Z,6.63
2022-11-19T01:13:50.248Z,3.63
2022-11-19T01:16:29.093Z,5.45
2022-11-19T01:18:56.603Z,3.58
2022-11-19T01:21:26.104Z,2.28
2022-11-19T01:23:53.235Z,4.18
2022-11-19T01:26:20.487Z,2.78
2022-11-19T01:28:47.940Z,2.85
2022-11-19T01:31:23.481Z,5.97
2022-11-19T01:33:50.943Z,5.22
2022-11-19T01:36:21.422Z,3.40
2022-11-19T01:38:51.064Z,3.42
2022-11-19T01:41:19.628Z,3.55
2022-11-19T01:46:20.594Z,5.88
2022-11-19T01:49:11.738Z,4.32
2022-11-19T01:51:48.970Z,4.85
2022-11-19T01:54:31.382Z,2.88
2022-11-19T01:57:03.029Z,3.53
2022-11-19T01:59:31.344Z,3.88
2022-11-19T02:01:58.311Z,2.70
2022-11-19T02:04:26.932Z,2.03
2022-11-19T02:06:54.516Z,2.50
2022-11-19T02:09:21.813Z,1.90
2022-11-19T02:12:10.474Z,4.65
2022-11-19T02:15:34.083Z,2.70
2022-11-19T02:18:23.773Z,2.83
2022-11-19T02:21:10.900Z,5.68
2022-11-19T02:24:03.991Z,4.07
2022-11-19T02:27:00.605Z,1.88
2022-11-19T02:29:31.010Z,3.65
2022-11-19T02:32:01.900Z,2.25
2022-11-19T02:34:47.430Z,2.42
2022-11-19T02:37:21.512Z,3.58
2022-11-19T02:40:13.723Z,3.63
2022-11-19T02:43:05.320Z,3.65
2022-11-19T02:45:47.394Z,4.10
2022-11-19T02:48:28.862Z,2.13
2022-11-19T02:50:59.710Z,3.65
2022-11-19T02:53:26.846Z,3.88
2022-11-19T02:56:12.001Z,3.33
2022-11-19T02:59:15.635Z,2.85
2022-11-19T03:02:04.561Z,2.63
2022-11-19T03:04:33.053Z,4.07
2022-11-19T03:09:34.854Z,4.30
2022-11-19T03:12:20.664Z,3.42
2022-11-19T03:15:15.341Z,2.92
2022-11-19T03:18:20.970Z,3.88
2022-11-19T03:21:06.067Z,2.92
2022-11-19T03:23:40.293Z,2.65
2022-11-19T03:26:31.273Z,3.70
2022-11-19T03:29:02.276Z,3.20
2022-11-19T03:31:31.273Z,1.77
2022-11-19T03:34:02.175Z,2.97
2022-11-19T03:36:40.925Z,2.80
2022-11-19T03:39:15.294Z,1.27
2022-11-19T03:41:44.339Z,1.92
2022-11-19T03:44:31.572Z,1.67
2022-11-19T03:47:04.241Z,6.10
2022-11-19T03:49:37.238Z,3.78
2022-11-19T03:52:13.734Z,4.13
2022-11-19T03:54:41.663Z,3.15
2022-11-19T03:57:12.049Z,1.75
2022-11-19T03:59:39.137Z,1.63
2022-11-19T04:02:09.662Z,1.80
2022-11-19T04:04:40.198Z,1.40
2022-11-19T04:07:11.309Z,2.05
2022-11-19T04:09:39.928Z,2.20
2022-11-19T04:14:35.046Z,5.65
2022-11-19T04:17:02.041Z,2.90
2022-11-19T04:19:28.990Z,2.25
2022-11-19T04:21:55.919Z,3.75
2022-11-19T04:24:22.817Z,2.55
2022-11-19T04:26:49.723Z,2.22
2022-11-19T04:29:16.921Z,3.22
2022-11-19T04:31:44.387Z,3.03
2022-11-19T04:34:11.357Z,2.60
2022-11-19T04:36:40.305Z,1.58
2022-11-19T04:39:07.594Z,2.50
2022-11-19T04:41:34.985Z,2.83
2022-11-19T04:44:02.154Z,1.48
2022-11-19T04:46:29.200Z,2.53
2022-11-19T04:48:56.082Z,3.03
2022-11-19T04:51:23.176Z,3.75
2022-11-19T04:53:50.198Z,3.40
2022-11-19T04:56:17.481Z,1.63
2022-11-19T04:58:44.454Z,3.10
2022-11-19T05:01:11.471Z,1.98
2022-11-19T05:03:38.437Z,2.85
2022-11-19T05:06:05.501Z,1.02
2022-11-19T05:08:32.556Z,1.58
2022-11-19T05:10:59.515Z,3.00
2022-11-19T05:13:26.420Z,1.08
2022-11-19T05:15:53.373Z,1.58
2022-11-19T05:18:20.230Z,1.50
2022-11-19T05:20:48.558Z,2.05
2022-11-19T05:23:15.447Z,1.73
2022-11-19T05:25:43.326Z,3.05
2022-11-19T05:28:10.277Z,3.28
2022-11-19T05:30:37.260Z,1.63
2022-11-19T05:33:04.291Z,1.35
2022-11-19T05:35:31.894Z,2.03
2022-11-19T05:37:58.803Z,2.37
2022-11-19T05:40:26.017Z,1.42
2022-11-19T05:42:53.045Z,2.92
2022-11-19T05:45:19.985Z,1.90
2022-11-19T05:47:48.758Z,1.10
2022-11-19T05:50:16.477Z,1.30
2022-11-19T05:52:43.473Z,4.47
2022-11-19T05:55:10.467Z,1.58
2022-11-19T05:57:37.313Z,2.05
2022-11-19T06:00:05.435Z,2.78
2022-11-19T06:02:39.601Z,1.15
2022-11-19T06:05:06.851Z,1.75
2022-11-19T06:07:33.824Z,3.65
2022-11-19T06:10:00.777Z,1.48
2022-11-19T06:12:27.656Z,4.05
2022-11-19T06:14:54.515Z,2.45
2022-11-19T06:17:21.584Z,2.25
2022-11-19T06:19:48.555Z,1.80
2022-11-19T06:22:15.477Z,2.40
2022-11-19T06:24:42.451Z,1.52
2022-11-19T06:27:09.379Z,1.80
2022-11-19T06:29:36.249Z,1.63
2022-11-19T06:32:03.246Z,0.80
2022-11-19T06:34:30.155Z,1.58
2022-11-19T06:36:58.765Z,1.23
2022-11-19T06:39:25.685Z,1.95
2022-11-19T06:41:52.804Z,1.00
2022-11-19T06:44:19.724Z,1.48
2022-11-19T06:46:46.594Z,1.58
2022-11-19T06:49:19.711Z,2.75
2022-11-19T06:51:47.035Z,0.88
2022-11-19T06:54:14.051Z,2.25
2022-11-19T06:56:40.950Z,1.08
2022-11-19T06:59:07.868Z,2.33
2022-11-19T07:01:34.817Z,1.85
2022-11-19T07:04:01.750Z,2.72
2022-11-19T07:06:28.971Z,1.63
2022-11-19T07:08:55.907Z,1.48
2022-11-19T07:11:28.712Z,2.50
2022-11-19T07:13:57.655Z,2.42
2022-11-19T07:16:26.339Z,2.47
2022-11-19T07:18:53.279Z,1.80
2022-11-19T07:21:20.211Z,2.25
2022-11-19T07:23:47.162Z,2.15
2022-11-19T07:26:14.469Z,1.40
2022-11-19T07:28:41.923Z,1.10
2022-11-19T07:31:09.503Z,1.80
2022-11-19T07:33:39.122Z,2.60
2022-11-19T07:36:09.891Z,2.55
2022-11-19T07:38:39.020Z,1.33
2022-11-19T07:41:24.941Z,3.35
2022-11-19T07:43:52.214Z,1.33
2022-11-19T07:46:19.162Z,1.27
2022-11-19T07:48:46.113Z,2.45
2022-11-19T07:51:13.317Z,1.70
2022-11-19T07:53:40.286Z,1.73
2022-11-19T07:56:07.499Z,1.95
2022-11-19T07:58:34.519Z,2.15
2022-11-19T08:01:09.290Z,2.60
2022-11-19T08:03:36.432Z,1.83
2022-11-19T08:06:05.245Z,2.95
2022-11-19T08:08:35.228Z,1.33
2022-11-19T08:11:07.370Z,1.83
2022-11-19T08:13:35.403Z,1.88
2022-11-19T08:16:04.289Z,1.75
2022-11-19T08:18:32.040Z,1.33
2022-11-19T08:21:10.259Z,1.02
2022-11-19T08:23:38.750Z,1.27
2022-11-19T08:26:09.008Z,1.35
2022-11-19T08:28:36.021Z,1.23
2022-11-19T08:31:09.805Z,1.55
2022-11-19T08:33:36.792Z,1.08
2022-11-19T08:36:04.703Z,1.42
2022-11-19T08:38:37.230Z,1.40
2022-11-19T08:41:25.072Z,1.40
2022-11-19T08:43:52.014Z,2.80
2022-11-19T08:46:18.886Z,1.98
2022-11-19T08:48:45.946Z,2.33
2022-11-19T08:51:14.955Z,1.08
2022-11-19T08:53:42.014Z,0.93
2022-11-19T08:56:12.749Z,1.20
2022-11-19T08:58:42.308Z,2.75
2022-11-19T09:01:14.398Z,2.38
2022-11-19T09:03:41.904Z,1.10
2022-11-19T09:06:09.205Z,0.63
2022-11-19T09:08:36.782Z,1.50
2022-11-19T09:11:08.545Z,0.77
2022-11-19T09:13:36.026Z,2.22
2022-11-19T09:16:03.106Z,1.83
2022-11-19T09:18:31.802Z,1.75
2022-11-19T09:20:59.132Z,0.82
2022-11-19T09:23:27.436Z,1.75
2022-11-19T09:26:01.587Z,0.90
2022-11-19T09:28:29.298Z,1.52
2022-11-19T09:31:04.831Z,1.30
2022-11-19T09:33:33.753Z,0.77
2022-11-19T09:36:00.849Z,1.88
2022-11-19T09:38:27.913Z,0.75
2022-11-19T09:40:56.338Z,2.25
2022-11-19T09:43:44.946Z,1.45
2022-11-19T09:46:38.942Z,1.00
2022-11-19T09:49:25.483Z,0.82
2022-11-19T09:51:58.228Z,2.55
2022-11-19T09:54:25.809Z,0.80
2022-11-19T09:57:00.379Z,1.23
2022-11-19T09:59:39.487Z,1.20
2022-11-19T10:02:21.118Z,1.38
2022-11-19T10:04:50.589Z,1.55
2022-11-19T10:07:27.254Z,1.48
2022-11-19T10:10:05.363Z,1.95
2022-11-19T10:13:12.001Z,2.03
2022-11-19T10:16:00.947Z,1.25
2022-11-19T10:19:13.140Z,1.48
2022-11-19T10:21:40.064Z,1.77
2022-11-19T10:24:18.952Z,1.30
2022-11-19T10:26:57.709Z,2.55
2022-11-19T10:29:29.439Z,1.48
2022-11-19T10:32:31.451Z,2.17
2022-11-19T10:35:03.937Z,1.75
2022-11-19T10:37:35.681Z,1.75
2022-11-19T10:40:15.561Z,2.10
2022-11-19T10:42:47.132Z,1.75
2022-11-19T10:45:24.154Z,2.22
2022-11-19T10:48:08.925Z,1.77
2022-11-19T10:50:36.567Z,1.88
2022-11-19T10:53:25.013Z,1.98
2022-11-19T10:55:55.168Z,2.00
2022-11-19T10:58:30.309Z,1.95
2022-11-19T11:01:00.712Z,1.77
2022-11-19T11:03:48.082Z,2.00
2022-11-19T11:06:15.131Z,1.95
2022-11-19T11:08:49.635Z,1.95
2022-11-19T11:11:52.370Z,2.20
2022-11-19T11:14:41.580Z,2.15
2022-11-19T11:17:42.550Z,2.42
2022-11-19T11:20:18.385Z,2.95
2022-11-19T11:22:48.388Z,2.00
2022-11-19T11:25:50.588Z,1.88
2022-11-19T11:28:19.848Z,3.22
2022-11-19T11:30:55.636Z,2.28
2022-11-19T11:33:32.933Z,2.38
2022-11-19T11:36:06.859Z,2.83
2022-11-19T11:38:42.412Z,2.13
2022-11-19T11:44:07.251Z,2.47
2022-11-19T11:46:46.816Z,1.85
2022-11-19T11:49:29.906Z,2.10
2022-11-19T11:52:13.938Z,2.38
2022-11-19T11:55:02.066Z,2.30
2022-11-19T11:57:36.283Z,2.08
2022-11-19T12:00:45.519Z,2.20
2022-11-19T12:03:19.957Z,2.63
2022-11-19T12:05:50.116Z,2.00
2022-11-19T12:08:27.169Z,2.10
2022-11-19T12:11:15.406Z,2.20
2022-11-19T12:14:08.044Z,2.60
2022-11-19T12:16:46.713Z,2.35
2022-11-19T12:19:19.763Z,2.20
2022-11-19T12:22:01.380Z,2.42
2022-11-19T12:24:50.549Z,2.53
2022-11-19T12:27:34.262Z,2.80
2022-11-19T12:30:24.593Z,2.58
2022-11-19T12:33:07.021Z,2.58
2022-11-19T12:36:16.215Z,2.28
2022-11-19T12:39:17.645Z,2.75
2022-11-19T12:42:25.911Z,3.13
2022-11-19T12:47:42.093Z,2.38
2022-11-19T12:50:29.676Z,1.98
2022-11-19T12:52:59.610Z,1.92
2022-11-19T12:55:34.806Z,1.70
2022-11-19T12:58:42.583Z,1.95
2022-11-19T13:01:16.574Z,1.70
2022-11-19T13:03:50.517Z,1.40
2022-11-19T13:06:43.517Z,1.30
2022-11-19T13:09:30.841Z,1.88
2022-11-19T13:12:05.650Z,1.70
2022-11-19T13:14:57.862Z,1.92
2022-11-19T13:17:40.491Z,2.15
2022-11-19T13:21:09.113Z,2.10
2022-11-19T13:23:43.386Z,2.42
2022-11-19T13:26:15.717Z,2.00
2022-11-19T13:28:44.556Z,2.13
2022-11-19T13:31:57.584Z,1.63
2022-11-19T13:34:37.506Z,1.73
2022-11-19T13:37:22.467Z,2.25
2022-11-19T13:40:01.389Z,7.10
2022-11-19T13:43:04.153Z,4.30
2022-11-19T13:45:37.317Z,3.53
2022-11-19T13:50:45.833Z,4.15
2022-11-19T13:53:27.837Z,3.92
2022-11-19T13:55:58.283Z,4.65
2022-11-19T13:58:33.558Z,4.90
2022-11-19T14:01:34.009Z,7.40
2022-11-19T14:04:14.208Z,9.02
2022-11-19T14:07:14.218Z,6.88
2022-11-19T14:10:08.193Z,5.07
2022-11-19T14:12:37.910Z,4.22
2022-11-19T14:15:41.539Z,4.20
2022-11-19T14:18:38.156Z,3.65
2022-11-19T14:21:42.638Z,4.38
2022-11-19T14:24:51.756Z,5.35
2022-11-19T14:27:47.973Z,5.70
2022-11-19T14:30:17.547Z,7.05
2022-11-19T14:32:48.314Z,5.55
2022-11-19T14:35:23.364Z,5.43
2022-11-19T14:37:54.862Z,4.57
2022-11-19T14:40:33.851Z,4.43
2022-11-19T14:43:19.157Z,3.97
2022-11-19T14:46:09.215Z,5.07
2022-11-19T14:48:39.140Z,5.07
2022-11-19T14:51:13.102Z,5.50
2022-11-19T14:53:50.898Z,5.07
2022-11-19T14:56:21.125Z,6.03
2022-11-19T14:59:02.899Z,5.85
2022-11-19T15:01:29.829Z,6.03
2022-11-19T15:04:05.315Z,6.85
2022-11-19T15:06:37.347Z,6.15
2022-11-19T15:09:05.200Z,5.47
2022-11-19T15:11:57.109Z,5.18
2022-11-19T15:14:29.889Z,5.07
2022-11-19T15:16:59.551Z,4.60
2022-11-19T15:19:35.283Z,4.75
2022-11-19T15:22:40.349Z,4.22
2022-11-19T15:25:12.499Z,4.82
2022-11-19T15:28:14.096Z,4.72
2022-11-19T15:30:51.656Z,5.05
2022-11-19T15:33:58.281Z,6.83
2022-11-19T15:36:40.221Z,9.05
2022-11-19T15:39:23.620Z,7.93
2022-11-19T15:42:00.971Z,7.22
2022-11-19T15:44:37.316Z,8.25
2022-11-19T15:47:28.858Z,7.55
2022-11-19T15:49:58.407Z,6.40
2022-11-19T15:52:32.911Z,6.82
2022-11-19T15:55:19.490Z,5.53
2022-11-19T15:57:50.193Z,4.50
2022-11-19T16:00:22.665Z,5.07
2022-11-19T16:02:51.739Z,5.75
2022-11-19T16:05:23.320Z,4.95
2022-11-19T16:07:52.293Z,6.13
2022-11-19T16:10:28.393Z,10.13
2022-11-19T16:13:18.078Z,6.28
2022-11-19T16:16:11.815Z,5.03
2022-11-19T16:18:50.431Z,10.90
2022-11-19T16:21:39.993Z,13.43
2022-11-19T16:24:31.811Z,10.98
2022-11-19T16:27:00.192Z,12.02
2022-11-19T16:29:27.542Z,10.95
2022-11-19T16:31:59.573Z,13.20
2022-11-19T16:34:30.131Z,10.68
2022-11-19T16:36:57.528Z,9.90
2022-11-19T16:39:27.503Z,10.05
2022-11-19T16:42:15.987Z,10.15
2022-11-19T16:44:46.100Z,15.00
2022-11-19T16:47:26.313Z,14.73
2022-11-19T16:50:04.348Z,11.43
2022-11-19T16:52:43.660Z,17.45
2022-11-19T16:55:19.562Z,16.45
2022-11-19T16:57:48.095Z,12.30
2022-11-19T17:02:49.439Z,12.60
2022-11-19T17:05:19.783Z,16.13
2022-11-19T17:07:49.967Z,12.82
2022-11-19T17:10:22.670Z,11.55
2022-11-19T17:12:55.596Z,9.50
2022-11-19T17:15:42.129Z,9.90
2022-11-19T17:18:32.487Z,7.43
2022-11-19T17:21:06.742Z,12.30
2022-11-19T17:23:38.074Z,8.85
2022-11-19T17:26:08.104Z,7.57
2022-11-19T17:28:45.326Z,7.68
2022-11-19T17:31:18.209Z,5.90
2022-11-19T17:34:06.483Z,6.13
2022-11-19T17:39:00.416Z,7.15
2022-11-19T17:41:47.719Z,8.57
2022-11-19T17:44:31.970Z,6.68
2022-11-19T17:46:59.699Z,10.35
2022-11-19T17:49:26.854Z,10.95
2022-11-19T17:51:55.388Z,10.90
2022-11-19T17:54:23.972Z,11.25
2022-11-19T17:56:51.218Z,10.55
2022-11-19T17:59:19.401Z,9.45
2022-11-19T18:04:13.638Z,9.77
2022-11-19T18:06:41.349Z,7.03
2022-11-19T18:09:08.523Z,9.10
2022-11-19T18:11:38.436Z,5.75
2022-11-19T18:14:10.201Z,7.13
2022-11-19T18:16:40.041Z,9.18
2022-11-19T18:19:12.124Z,8.45
2022-11-19T18:21:41.667Z,33.03
2022-11-19T18:24:12.586Z,29.30
2022-11-19T18:26:39.785Z,27.27
2022-11-19T18:29:06.754Z,21.13
2022-11-19T18:31:33.900Z,16.73
2022-11-19T18:34:00.923Z,15.90
2022-11-19T18:36:28.070Z,11.77
2022-11-19T18:38:55.705Z,10.20
2022-11-19T18:41:22.792Z,12.35
2022-11-19T18:44:08.371Z,11.25
2022-11-19T18:46:35.661Z,11.02
2022-11-19T18:49:02.650Z,10.93
2022-11-19T18:51:31.455Z,13.48
2022-11-19T18:53:58.431Z,18.88
2022-11-19T18:56:25.503Z,16.27
2022-11-19T18:58:52.569Z,14.63
2022-11-19T19:01:20.112Z,11.82
2022-11-19T19:03:47.484Z,18.88
2022-11-19T19:06:14.811Z,14.57
2022-11-19T19:08:41.861Z,20.88
2022-11-19T19:11:28.022Z,18.00
2022-11-19T19:13:54.968Z,15.90
2022-11-19T19:16:22.668Z,14.63
2022-11-19T19:18:49.760Z,13.70
2022-11-19T19:21:19.279Z,13.70
2022-11-19T19:23:47.329Z,18.17
2022-11-19T19:26:16.441Z,14.48
2022-11-19T19:28:47.401Z,16.08
2022-11-19T19:31:17.750Z,15.70
2022-11-19T19:33:48.364Z,17.55
2022-11-19T19:36:16.569Z,21.08
2022-11-19T19:38:44.037Z,18.20
2022-11-19T19:41:22.441Z,17.50
2022-11-19T19:43:50.278Z,16.75
2022-11-19T19:46:19.280Z,16.70
2022-11-19T19:48:54.266Z,17.48
2022-11-19T19:51:23.934Z,13.30
2022-11-19T19:53:51.333Z,14.90
2022-11-19T19:56:23.598Z,14.32
2022-11-19T19:58:51.312Z,17.17
2022-11-19T20:01:21.419Z,15.17
2022-11-19T20:03:53.202Z,14.75
2022-11-19T20:06:23.715Z,15.27
2022-11-19T20:08:50.757Z,18.33
2022-11-19T20:11:20.560Z,20.10
2022-11-19T20:13:47.956Z,18.08
2022-11-19T20:16:23.879Z,19.20
2022-11-19T20:18:52.380Z,21.80
2022-11-19T20:21:23.226Z,21.98
2022-11-19T20:23:50.594Z,23.30
2022-11-19T20:26:22.811Z,20.00
2022-11-19T20:28:55.882Z,24.05
2022-11-19T20:31:23.511Z,22.10
2022-11-19T20:33:55.528Z,19.40
2022-11-19T20:36:24.534Z,18.45
2022-11-19T20:38:51.492Z,18.67
2022-11-19T20:41:38.758Z,20.40
2022-11-19T20:44:22.140Z,21.35
2022-11-19T20:47:00.995Z,22.92
2022-11-19T20:49:30.485Z,25.63
2022-11-19T20:51:57.453Z,22.45
2022-11-19T20:54:25.380Z,25.67
2022-11-19T20:56:53.394Z,23.65
2022-11-19T20:59:21.521Z,26.50
2022-11-19T21:01:49.783Z,22.73
2022-11-19T21:04:17.420Z,26.65
2022-11-19T21:06:44.690Z,19.95
2022-11-19T21:09:12.050Z,21.88
2022-11-19T21:11:39.136Z,26.52
2022-11-19T21:14:06.231Z,23.25
2022-11-19T21:16:33.236Z,22.85
2022-11-19T21:19:00.257Z,19.80
2022-11-19T21:21:27.825Z,22.83
2022-11-19T21:23:55.169Z,23.50
2022-11-19T21:26:24.080Z,21.38
2022-11-19T21:28:56.500Z,21.75
2022-11-19T21:31:38.896Z,21.45
2022-11-19T21:34:11.434Z,20.70
2022-11-19T21:36:39.765Z,22.10
2022-11-19T21:39:07.792Z,26.88
2022-11-19T21:41:35.141Z,28.48
2022-11-19T21:44:02.890Z,27.88
2022-11-19T21:46:30.300Z,26.63
2022-11-19T21:48:57.277Z,25.98
2022-11-19T21:51:25.151Z,23.08
2022-11-19T21:53:59.002Z,20.88
2022-11-19T21:56:27.597Z,24.75
2022-11-19T22:01:22.001Z,23.83
2022-11-19T22:03:48.987Z,25.35
2022-11-19T22:06:15.958Z,26.73
2022-11-19T22:08:43.592Z,27.40
2022-11-19T22:11:30.022Z,24.38
2022-11-19T22:14:05.963Z,28.52
2022-11-19T22:16:37.265Z,23.88
2022-11-19T22:19:05.701Z,25.70
2022-11-19T22:21:33.468Z,26.52
2022-11-19T22:24:00.764Z,26.53
2022-11-19T22:26:28.158Z,29.35
2022-11-19T22:28:55.776Z,31.40
2022-11-19T22:31:23.445Z,32.40
2022-11-19T22:33:52.223Z,30.90
2022-11-19T22:36:20.730Z,31.98
2022-11-19T22:38:48.207Z,36.65
2022-11-19T22:41:18.079Z,33.22
2022-11-19T22:43:45.578Z,31.58
2022-11-19T22:46:13.468Z,37.17
2022-11-19T22:48:41.009Z,34.03
2022-11-19T22:51:20.248Z,28.38
2022-11-19T22:53:48.407Z,29.95
2022-11-19T22:56:21.426Z,26.50
2022-11-19T22:58:49.842Z,34.60
2022-11-19T23:01:16.911Z,30.20
2022-11-19T23:03:44.534Z,27.58
2022-11-19T23:06:11.463Z,26.17
2022-11-19T23:08:38.525Z,25.98
2022-11-19T23:11:07.289Z,23.77
2022-11-19T23:13:39.249Z,22.73
2022-11-19T23:16:18.501Z,22.15
2022-11-19T23:18:53.324Z,22.48
2022-11-19T23:21:25.701Z,24.73
2022-11-19T23:23:53.036Z,26.05
2022-11-19T23:26:22.461Z,28.48
2022-11-19T23:28:50.086Z,24.45
2022-11-19T23:31:18.199Z,25.98
2022-11-19T23:33:45.898Z,27.38
2022-11-19T23:36:21.669Z,29.17
2022-11-19T23:38:48.913Z,35.58
2022-11-19T23:41:17.961Z,26.67
2022-11-19T23:43:45.487Z,33.53
2022-11-19T23:46:26.909Z,28.95
2022-11-19T23:48:55.202Z,27.65
2022-11-19T23:51:25.213Z,26.30
2022-11-19T23:53:52.486Z,29.55
2022-11-19T23:56:20.963Z,25.90
2022-11-19T23:58:48.676Z,31.02
